createdAt,value
2023-01-15T00:00:26.628Z,99053.56
2023-01-15T00:02:57.715Z,99048.75
2023-01-15T00:05:25.798Z,99068.50
2023-01-15T00:07:53.964Z,99111.22
2023-01-15T00:10:25.461Z,99093.72
2023-01-15T00:12:53.368Z,99084.97
2023-01-15T00:15:21.400Z,99085.78
2023-01-15T00:17:50.004Z,99092.91
2023-01-15T00:20:19.516Z,99062.00
2023-01-15T00:22:47.286Z,99103.44
2023-01-15T00:25:33.324Z,99095.22
2023-01-15T00:28:01.923Z,99097.97
2023-01-15T00:30:29.919Z,99125.63
2023-01-15T00:33:04.302Z,99095.13
2023-01-15T00:35:33.519Z,99118.53
2023-01-15T00:38:01.373Z,99109.91
2023-01-15T00:40:31.305Z,99120.59
2023-01-15T00:42:59.119Z,99123.22
2023-01-15T00:45:29.496Z,99123.13
2023-01-15T00:47:58.074Z,99131.88
2023-01-15T00:50:25.948Z,99093.56
2023-01-15T00:52:55.442Z,99126.13
2023-01-15T00:55:25.721Z,99095.94
2023-01-15T00:57:53.494Z,99134.75
2023-01-15T01:00:21.775Z,99123.38
2023-01-15T01:02:50.198Z,99133.16
2023-01-15T01:05:18.151Z,99130.75
2023-01-15T01:07:46.159Z,99134.44
2023-01-15T01:10:15.970Z,99123.50
2023-01-15T01:12:44.012Z,99109.75
2023-01-15T01:15:12.264Z,99089.78
2023-01-15T01:17:40.621Z,99099.41
2023-01-15T01:20:10.369Z,99142.81
2023-01-15T01:22:38.256Z,99135.59
2023-01-15T01:25:07.445Z,99139.50
2023-01-15T01:27:37.144Z,99140.53
2023-01-15T01:30:05.471Z,99114.84
2023-01-15T01:32:33.932Z,99131.47
2023-01-15T01:35:01.910Z,99129.41
2023-01-15T01:37:29.756Z,99097.75
2023-01-15T01:39:58.352Z,99109.47
2023-01-15T01:42:26.257Z,99141.69
2023-01-15T01:45:19.261Z,99128.28
2023-01-15T01:47:48.024Z,99130.31
2023-01-15T01:50:15.954Z,99124.38
2023-01-15T01:52:48.343Z,99127.28
2023-01-15T01:55:19.280Z,99138.22
2023-01-15T01:57:49.607Z,99117.09
2023-01-15T02:00:19.978Z,99131.31
2023-01-15T02:02:52.193Z,99133.06
2023-01-15T02:05:29.041Z,99134.66
2023-01-15T02:07:58.151Z,99137.53
2023-01-15T02:10:26.271Z,99079.69
2023-01-15T02:13:03.734Z,99077.97
2023-01-15T02:15:37.351Z,99129.28
2023-01-15T02:18:15.300Z,99104.97
2023-01-15T02:20:49.288Z,99099.31
2023-01-15T02:23:46.180Z,99122.97
2023-01-15T02:26:52.225Z,99119.19
2023-01-15T02:29:28.864Z,99114.72
2023-01-15T02:31:56.885Z,99122.28
2023-01-15T02:34:32.764Z,99100.13
2023-01-15T02:37:06.667Z,99123.91
2023-01-15T02:39:38.742Z,99117.81
2023-01-15T02:42:10.914Z,99122.28
2023-01-15T02:44:43.861Z,99104.97
2023-01-15T02:47:12.847Z,99121.97
2023-01-15T02:49:43.700Z,99120.22
2023-01-15T02:52:17.449Z,99113.84
2023-01-15T02:54:49.583Z,99113.84
2023-01-15T02:57:21.607Z,99089.16
2023-01-15T02:59:51.330Z,99117.38
2023-01-15T03:02:22.681Z,99120.50
2023-01-15T03:04:58.873Z,99054.50
2023-01-15T03:07:33.111Z,99119.81
2023-01-15T03:10:01.065Z,99116.94
2023-01-15T03:12:59.267Z,99115.22
2023-01-15T03:15:49.397Z,99118.31
2023-01-15T03:18:23.421Z,99109.34
2023-01-15T03:20:58.743Z,99103.84
2023-01-15T03:23:30.125Z,99100.41
2023-01-15T03:25:58.258Z,99110.38
2023-01-15T03:28:33.287Z,99125.66
2023-01-15T03:31:01.361Z,99127.63
2023-01-15T03:33:31.053Z,99119.94
2023-01-15T03:36:00.961Z,99128.97
2023-01-15T03:38:30.436Z,99136.69
2023-01-15T03:41:09.526Z,99137.84
2023-01-15T03:43:47.959Z,99131.97
2023-01-15T03:46:28.371Z,99107.06
2023-01-15T03:49:03.312Z,99111.44
2023-01-15T03:51:40.690Z,99093.06
2023-01-15T03:54:14.430Z,99123.03
2023-01-15T03:56:56.204Z,99135.31
2023-01-15T03:59:31.003Z,99116.81
2023-01-15T04:02:00.177Z,99134.50
2023-01-15T04:04:29.485Z,99132.09
2023-01-15T04:06:58.648Z,99117.63
2023-01-15T04:09:27.097Z,99116.81
2023-01-15T04:11:54.833Z,99078.69
2023-01-15T04:14:22.681Z,99096.16
2023-01-15T04:16:54.348Z,99102.81
2023-01-15T04:19:22.292Z,99127.03
2023-01-15T04:21:50.210Z,99141.94
2023-01-15T04:24:18.249Z,99146.31
2023-01-15T04:26:46.265Z,99139.44
2023-01-15T04:29:14.115Z,99117.06
2023-01-15T04:31:42.606Z,99129.25
2023-01-15T04:34:11.882Z,99154.66
2023-01-15T04:36:39.789Z,99150.91
2023-01-15T04:39:08.405Z,99101.34
2023-01-15T04:41:53.656Z,99151.09
2023-01-15T04:44:21.941Z,99136.13
2023-01-15T04:46:49.963Z,99134.97
2023-01-15T04:49:19.860Z,99165.44
2023-01-15T04:51:48.819Z,99157.72
2023-01-15T04:54:18.056Z,99173.34
2023-01-15T04:56:48.186Z,99159.94
2023-01-15T04:59:17.358Z,99146.69
2023-01-15T05:02:01.877Z,99157.97
2023-01-15T05:04:32.599Z,99130.72
2023-01-15T05:07:02.303Z,99133.94
2023-01-15T05:09:30.158Z,99134.75
2023-01-15T05:11:58.797Z,99130.25
2023-01-15T05:14:26.716Z,99108.91
2023-01-15T05:16:54.561Z,99124.88
2023-01-15T05:19:22.940Z,99107.63
2023-01-15T05:21:52.653Z,99118.09
2023-01-15T05:24:20.836Z,99131.47
2023-01-15T05:26:49.250Z,99118.41
2023-01-15T05:29:17.153Z,99131.34
2023-01-15T05:31:45.928Z,99144.81
2023-01-15T05:34:14.827Z,99105.44
2023-01-15T05:36:42.880Z,99143.13
2023-01-15T05:39:12.383Z,99136.22
2023-01-15T05:41:53.403Z,99110.84
2023-01-15T05:44:23.995Z,99120.13
2023-01-15T05:46:53.887Z,99123.81
2023-01-15T05:49:23.616Z,99131.94
2023-01-15T05:51:52.947Z,99146.47
2023-01-15T05:54:24.699Z,99115.78
2023-01-15T05:56:53.696Z,99144.38
2023-01-15T05:59:24.460Z,99157.38
2023-01-15T06:01:52.979Z,99147.03
2023-01-15T06:04:21.866Z,99162.72
2023-01-15T06:06:51.831Z,99180.25
2023-01-15T06:09:23.059Z,99172.81
2023-01-15T06:11:54.617Z,99148.72
2023-01-15T06:14:22.815Z,99169.22
2023-01-15T06:16:50.771Z,99184.06
2023-01-15T06:19:19.156Z,99160.16
2023-01-15T06:21:47.051Z,99181.28
2023-01-15T06:24:16.704Z,99160.16
2023-01-15T06:26:45.544Z,99137.47
2023-01-15T06:29:18.837Z,99158.03
2023-01-15T06:31:47.681Z,99138.78
2023-01-15T06:34:15.588Z,99189.75
2023-01-15T06:36:43.366Z,99183.31
2023-01-15T06:39:12.425Z,99197.84
2023-01-15T06:41:57.518Z,99190.03
2023-01-15T06:44:47.279Z,99197.94
2023-01-15T06:47:24.045Z,99188.06
2023-01-15T06:49:55.167Z,99200.34
2023-01-15T06:52:23.305Z,99182.25
2023-01-15T06:54:51.446Z,99178.97
2023-01-15T06:57:19.935Z,99189.88
2023-01-15T06:59:49.791Z,99204.09
2023-01-15T07:02:18.514Z,99204.13
2023-01-15T07:04:47.399Z,99207.72
2023-01-15T07:07:15.262Z,99207.56
2023-01-15T07:09:43.073Z,99209.47
2023-01-15T07:12:11.587Z,99219.91
2023-01-15T07:14:39.378Z,99229.03
2023-01-15T07:17:08.565Z,99227.19
2023-01-15T07:19:36.971Z,99229.63
2023-01-15T07:22:04.883Z,99211.91
2023-01-15T07:24:32.875Z,99226.16
2023-01-15T07:27:01.452Z,99183.34
2023-01-15T07:29:30.877Z,99179.31
2023-01-15T07:31:59.452Z,99238.84
2023-01-15T07:34:29.188Z,99245.06
2023-01-15T07:36:56.935Z,99202.72
2023-01-15T07:39:24.779Z,99246.91
2023-01-15T07:42:10.622Z,99217.97
2023-01-15T07:44:55.816Z,99235.41
2023-01-15T07:47:42.930Z,99242.66
2023-01-15T07:50:14.535Z,99249.94
2023-01-15T07:52:42.456Z,99258.09
2023-01-15T07:55:13.138Z,99258.50
2023-01-15T07:57:41.822Z,99243.84
2023-01-15T08:00:12.787Z,99223.50
2023-01-15T08:02:41.644Z,99205.84
2023-01-15T08:05:11.542Z,99251.69
2023-01-15T08:07:42.460Z,99256.53
2023-01-15T08:10:12.140Z,99262.25
2023-01-15T08:12:57.856Z,99261.84
2023-01-15T08:15:25.598Z,99278.84
2023-01-15T08:17:53.849Z,99260.47
2023-01-15T08:20:24.173Z,99261.22
2023-01-15T08:22:53.988Z,99276.09
2023-01-15T08:25:24.295Z,99271.50
2023-01-15T08:27:52.547Z,99279.59
2023-01-15T08:30:23.805Z,99269.66
2023-01-15T08:32:52.450Z,99265.78
2023-01-15T08:35:20.347Z,99253.06
2023-01-15T08:37:48.267Z,99254.44
2023-01-15T08:40:18.558Z,99256.69
2023-01-15T08:42:46.457Z,99280.06
2023-01-15T08:45:14.780Z,99277.44
2023-01-15T08:47:42.734Z,99258.91
2023-01-15T08:50:11.807Z,99218.34
2023-01-15T08:52:39.790Z,99268.31
2023-01-15T08:55:09.072Z,99284.34
2023-01-15T08:57:38.684Z,99273.13
2023-01-15T09:00:08.162Z,99244.53
2023-01-15T09:02:36.539Z,99258.88
2023-01-15T09:05:04.402Z,99258.66
2023-01-15T09:07:32.228Z,99257.28
2023-01-15T09:10:00.228Z,99256.91
2023-01-15T09:12:28.038Z,99271.25
2023-01-15T09:15:02.164Z,99299.13
2023-01-15T09:17:30.378Z,99308.88
2023-01-15T09:20:00.286Z,99299.91
2023-01-15T09:22:31.285Z,99289.34
2023-01-15T09:24:59.454Z,99286.75
2023-01-15T09:27:27.555Z,99273.81
2023-01-15T09:29:58.113Z,99311.09
2023-01-15T09:32:26.134Z,99282.50
2023-01-15T09:34:54.033Z,99250.38
2023-01-15T09:37:22.603Z,99335.59
2023-01-15T09:39:50.544Z,99307.91
2023-01-15T09:42:37.349Z,99330.34
2023-01-15T09:45:23.722Z,99345.09
2023-01-15T09:48:18.393Z,99308.47
2023-01-15T09:50:58.185Z,99326.66
2023-01-15T09:53:39.477Z,99321.84
2023-01-15T09:56:07.503Z,99315.94
2023-01-15T09:58:38.034Z,99347.19
2023-01-15T10:01:08.422Z,99289.69
2023-01-15T10:03:43.409Z,99326.19
2023-01-15T10:06:17.414Z,99336.47
2023-01-15T10:08:47.180Z,99292.06
2023-01-15T10:11:49.904Z,99348.78
2023-01-15T10:14:38.992Z,99364.00
2023-01-15T10:17:29.214Z,99356.34
2023-01-15T10:19:58.517Z,99357.53
2023-01-15T10:22:41.662Z,99338.13
2023-01-15T10:25:17.240Z,99368.22
2023-01-15T10:27:49.469Z,99361.81
2023-01-15T10:30:19.013Z,99332.03
2023-01-15T10:33:07.603Z,99376.22
2023-01-15T10:35:43.005Z,99352.78
2023-01-15T10:38:16.254Z,99361.22
2023-01-15T10:41:03.642Z,99357.38
2023-01-15T10:43:41.898Z,99350.25
2023-01-15T10:46:14.316Z,99354.56
2023-01-15T10:48:47.536Z,99362.63
2023-01-15T10:51:18.843Z,99361.34
2023-01-15T10:53:51.816Z,99365.94
2023-01-15T10:56:30.327Z,99330.00
2023-01-15T10:59:06.074Z,99322.50
2023-01-15T11:01:34.099Z,99348.63
2023-01-15T11:04:03.647Z,99315.09
2023-01-15T11:06:34.155Z,99341.66
2023-01-15T11:09:11.545Z,99331.19
2023-01-15T11:12:02.289Z,99301.34
2023-01-15T11:14:54.854Z,99328.81
2023-01-15T11:17:41.689Z,99343.09
2023-01-15T11:20:23.982Z,99335.50
2023-01-15T11:22:52.618Z,99347.88
2023-01-15T11:25:28.779Z,99338.06
2023-01-15T11:27:57.835Z,99334.09
2023-01-15T11:30:28.214Z,99316.50
2023-01-15T11:32:58.694Z,99331.09
2023-01-15T11:35:28.222Z,99326.78
2023-01-15T11:38:07.741Z,99335.19
2023-01-15T11:40:35.776Z,99330.31
2023-01-15T11:43:21.643Z,99342.03
2023-01-15T11:46:08.986Z,99328.47
2023-01-15T11:49:02.806Z,99323.59
2023-01-15T11:51:39.325Z,99303.16
2023-01-15T11:54:11.823Z,99301.88
2023-01-15T11:56:44.715Z,99314.78
2023-01-15T11:59:15.416Z,99286.53
2023-01-15T12:01:54.751Z,99322.84
2023-01-15T12:04:35.079Z,99322.44
2023-01-15T12:07:06.231Z,99294.59
2023-01-15T12:09:48.514Z,99303.44
2023-01-15T12:12:29.215Z,99315.97
2023-01-15T12:15:20.448Z,99298.16
2023-01-15T12:18:05.156Z,99318.84
2023-01-15T12:20:50.194Z,99302.94
2023-01-15T12:23:45.949Z,99303.38
2023-01-15T12:26:21.614Z,99301.09
2023-01-15T12:28:59.192Z,99292.31
2023-01-15T12:31:33.001Z,99302.19
2023-01-15T12:34:06.309Z,99294.00
2023-01-15T12:36:40.588Z,99284.91
2023-01-15T12:39:18.157Z,99291.94
2023-01-15T12:42:07.567Z,99288.28
2023-01-15T12:44:58.077Z,99289.44
2023-01-15T12:47:31.637Z,99289.25
2023-01-15T12:50:05.541Z,99278.97
2023-01-15T12:52:40.840Z,99288.16
2023-01-15T12:55:12.543Z,99280.66
2023-01-15T12:57:45.254Z,99250.81
2023-01-15T13:00:18.258Z,99250.06
2023-01-15T13:03:01.635Z,99253.13
2023-01-15T13:05:31.952Z,99281.84
2023-01-15T13:08:06.700Z,99282.00
2023-01-15T13:10:36.612Z,99247.13
2023-01-15T13:13:17.024Z,99259.94
2023-01-15T13:15:59.091Z,99267.91
2023-01-15T13:18:37.292Z,99286.50
2023-01-15T13:21:13.480Z,99291.13
2023-01-15T13:24:08.871Z,99286.50
2023-01-15T13:27:14.512Z,99257.66
2023-01-15T13:29:57.306Z,99292.97
2023-01-15T13:32:29.104Z,99288.63
2023-01-15T13:35:02.946Z,99277.81
2023-01-15T13:37:35.070Z,99291.00
2023-01-15T13:40:11.998Z,99285.16
2023-01-15T13:42:46.864Z,99272.53
2023-01-15T13:45:34.284Z,99243.47
2023-01-15T13:48:06.972Z,99289.00
2023-01-15T13:50:38.583Z,99280.81
2023-01-15T13:53:17.481Z,99293.53
2023-01-15T13:55:53.557Z,99301.81
2023-01-15T13:58:26.857Z,99300.66
2023-01-15T14:01:05.837Z,99245.69
2023-01-15T14:03:37.717Z,99303.94
2023-01-15T14:06:08.188Z,99307.19
2023-01-15T14:08:41.771Z,99311.84
2023-01-15T14:11:44.933Z,99302.56
2023-01-15T14:14:47.984Z,99296.34
2023-01-15T14:17:42.047Z,99292.00
2023-01-15T14:20:38.016Z,99296.91
2023-01-15T14:23:22.015Z,99292.97
2023-01-15T14:26:04.068Z,99299.19
2023-01-15T14:28:48.565Z,99298.81
2023-01-15T14:31:32.406Z,99305.78
2023-01-15T14:34:14.328Z,99284.97
2023-01-15T14:36:50.700Z,99312.09
2023-01-15T14:39:34.992Z,99308.66
2023-01-15T14:42:25.901Z,99295.16
2023-01-15T14:44:59.932Z,99297.66
2023-01-15T14:47:34.812Z,99314.91
2023-01-15T14:50:20.254Z,99317.69
2023-01-15T14:52:50.295Z,99321.97
2023-01-15T14:55:19.046Z,99329.06
2023-01-15T14:57:55.363Z,99322.25
2023-01-15T15:00:25.515Z,99309.34
2023-01-15T15:02:54.985Z,99351.41
2023-01-15T15:05:24.895Z,99345.81
2023-01-15T15:07:55.223Z,99343.72
2023-01-15T15:10:27.451Z,99332.56
2023-01-15T15:13:04.256Z,99334.56
2023-01-15T15:15:44.223Z,99330.00
2023-01-15T15:18:25.332Z,99341.88
2023-01-15T15:21:01.595Z,99336.00
2023-01-15T15:23:35.661Z,99335.56
2023-01-15T15:26:06.088Z,99335.16
2023-01-15T15:28:34.014Z,99329.41
2023-01-15T15:31:02.897Z,99333.22
2023-01-15T15:33:40.363Z,99332.78
2023-01-15T15:36:09.971Z,99322.91
2023-01-15T15:38:40.573Z,99332.78
2023-01-15T15:41:13.029Z,99324.88
2023-01-15T15:44:04.405Z,99289.25
2023-01-15T15:46:51.706Z,99328.22
2023-01-15T15:49:22.078Z,99331.69
2023-01-15T15:51:51.144Z,99322.31
2023-01-15T15:54:21.853Z,99329.03
2023-01-15T15:56:54.694Z,99328.50
2023-01-15T15:59:30.724Z,99327.75
2023-01-15T16:02:02.153Z,99290.59
2023-01-15T16:04:31.914Z,99291.41
2023-01-15T16:06:59.729Z,99333.34
2023-01-15T16:09:27.660Z,99317.25
2023-01-15T16:12:07.455Z,99311.97
2023-01-15T16:14:38.496Z,99326.91
2023-01-15T16:17:06.485Z,99327.69
2023-01-15T16:19:36.051Z,99331.28
2023-01-15T16:22:06.413Z,99321.78
2023-01-15T16:24:34.411Z,99305.91
2023-01-15T16:27:07.936Z,99302.63
2023-01-15T16:29:36.791Z,99288.72
2023-01-15T16:32:11.945Z,99311.31
2023-01-15T16:34:41.558Z,99261.13
2023-01-15T16:37:26.843Z,99296.50
2023-01-15T16:39:54.942Z,99246.13
2023-01-15T16:42:28.587Z,99294.09
2023-01-15T16:44:58.912Z,99225.38
2023-01-15T16:47:28.524Z,99290.88
2023-01-15T16:50:29.042Z,99282.75
2023-01-15T16:53:00.155Z,99281.94
2023-01-15T16:55:45.746Z,99276.06
2023-01-15T16:58:19.584Z,99269.41
2023-01-15T17:00:50.569Z,99241.81
2023-01-15T17:03:21.203Z,99266.56
2023-01-15T17:05:52.968Z,99270.66
2023-01-15T17:08:23.136Z,99292.09
2023-01-15T17:10:57.016Z,99283.16
2023-01-15T17:13:33.779Z,99273.50
2023-01-15T17:16:07.824Z,99269.34
2023-01-15T17:18:36.883Z,99260.22
2023-01-15T17:21:06.993Z,99254.72
2023-01-15T17:23:42.437Z,99265.66
2023-01-15T17:26:17.983Z,99250.44
2023-01-15T17:28:46.139Z,99277.63
2023-01-15T17:31:23.617Z,99274.50
2023-01-15T17:33:52.536Z,99249.38
2023-01-15T17:36:21.971Z,99245.38
2023-01-15T17:38:50.430Z,99250.56
2023-01-15T17:41:20.964Z,99230.44
2023-01-15T17:43:49.751Z,99241.28
2023-01-15T17:46:18.529Z,99236.00
2023-01-15T17:48:47.817Z,99224.66
2023-01-15T17:51:16.817Z,99219.66
2023-01-15T17:53:46.005Z,99220.63
2023-01-15T17:56:31.997Z,99221.66
2023-01-15T17:59:31.587Z,99215.19
2023-01-15T18:02:17.801Z,99197.03
2023-01-15T18:05:07.353Z,99204.50
2023-01-15T18:07:40.178Z,99203.28
2023-01-15T18:10:11.555Z,99197.78
2023-01-15T18:12:39.379Z,99191.91
2023-01-15T18:15:09.132Z,99168.59
2023-01-15T18:17:37.123Z,99187.25
2023-01-15T18:20:05.736Z,99184.16
2023-01-15T18:22:34.031Z,99142.03
2023-01-15T18:25:01.947Z,99170.31
2023-01-15T18:27:31.083Z,99147.88
2023-01-15T18:29:59.943Z,99163.97
2023-01-15T18:32:29.640Z,99154.00
2023-01-15T18:34:57.851Z,99157.66
2023-01-15T18:37:26.448Z,99144.50
2023-01-15T18:39:54.219Z,99152.31
2023-01-15T18:42:39.705Z,99134.97
2023-01-15T18:45:28.196Z,99146.31
2023-01-15T18:47:56.328Z,99141.00
2023-01-15T18:50:24.194Z,99123.06
2023-01-15T18:52:52.168Z,99161.34
2023-01-15T18:55:21.716Z,99154.81
2023-01-15T18:57:49.505Z,99152.25
2023-01-15T19:00:19.999Z,99161.75
2023-01-15T19:02:48.051Z,99141.47
2023-01-15T19:05:17.211Z,99142.31
2023-01-15T19:07:45.208Z,99116.19
2023-01-15T19:10:14.483Z,99132.78
2023-01-15T19:12:43.819Z,99102.81
2023-01-15T19:15:32.075Z,99107.31
2023-01-15T19:18:19.182Z,99108.13
2023-01-15T19:20:47.441Z,99105.56
2023-01-15T19:23:14.243Z,99101.19
2023-01-15T19:25:44.693Z,99101.91
2023-01-15T19:28:16.138Z,99095.03
2023-01-15T19:31:05.049Z,99085.41
2023-01-15T19:33:35.229Z,99048.97
2023-01-15T19:36:03.862Z,99056.00
2023-01-15T19:38:33.110Z,99061.41
2023-01-15T19:41:21.553Z,99059.03
2023-01-15T19:44:07.007Z,99039.22
2023-01-15T19:46:52.490Z,99037.25
2023-01-15T19:49:41.633Z,99040.47
2023-01-15T19:52:27.125Z,99055.53
2023-01-15T19:54:57.907Z,99056.47
2023-01-15T19:57:26.594Z,99040.75
2023-01-15T19:59:54.765Z,99031.34
2023-01-15T20:02:23.204Z,99035.88
2023-01-15T20:04:52.706Z,99013.47
2023-01-15T20:07:21.002Z,99031.63
2023-01-15T20:09:48.825Z,98961.06
2023-01-15T20:12:34.223Z,99001.34
2023-01-15T20:15:02.027Z,99008.13
2023-01-15T20:17:30.793Z,99000.00
2023-01-15T20:20:00.654Z,99001.81
2023-01-15T20:22:30.607Z,98985.69
2023-01-15T20:24:58.974Z,98967.53
2023-01-15T20:27:27.207Z,98983.91
2023-01-15T20:29:55.985Z,98998.13
2023-01-15T20:32:24.141Z,99006.09
2023-01-15T20:34:52.123Z,98994.25
2023-01-15T20:37:22.586Z,98972.91
2023-01-15T20:39:50.579Z,98961.50
2023-01-15T20:42:36.696Z,98987.25
2023-01-15T20:45:10.608Z,98989.75
2023-01-15T20:47:57.926Z,98986.09
2023-01-15T20:50:27.670Z,98962.69
2023-01-15T20:53:01.315Z,98923.81
2023-01-15T20:55:49.660Z,98935.28
2023-01-15T21:01:13.655Z,98965.09
2023-01-15T21:03:42.356Z,98929.50
2023-01-15T21:06:10.878Z,98952.00
2023-01-15T21:08:42.737Z,98937.53
2023-01-15T21:11:10.716Z,98883.00
2023-01-15T21:13:45.113Z,98924.97
2023-01-15T21:16:14.663Z,98937.88
2023-01-15T21:18:46.027Z,98882.34
2023-01-15T21:21:16.703Z,98919.59
2023-01-15T21:23:46.928Z,98931.25
2023-01-15T21:26:15.176Z,98920.91
2023-01-15T21:28:44.379Z,98932.09
2023-01-15T21:31:14.432Z,98948.97
2023-01-15T21:33:42.336Z,98937.41
2023-01-15T21:36:12.842Z,98929.97
2023-01-15T21:38:42.090Z,98936.53
2023-01-15T21:41:13.922Z,98930.13
2023-01-15T21:43:59.497Z,98925.66
2023-01-15T21:46:28.273Z,98915.28
2023-01-15T21:48:56.530Z,98893.53
2023-01-15T21:51:25.143Z,98912.13
2023-01-15T21:53:53.034Z,98914.75
2023-01-15T21:56:22.932Z,98922.78
2023-01-15T21:58:52.697Z,98912.78
2023-01-15T22:01:21.046Z,98893.44
2023-01-15T22:03:49.129Z,98918.50
2023-01-15T22:06:17.356Z,98918.66
2023-01-15T22:08:45.336Z,98896.94
2023-01-15T22:11:13.366Z,98906.53
2023-01-15T22:13:43.305Z,98891.53
2023-01-15T22:16:11.295Z,98905.56
2023-01-15T22:18:40.996Z,98917.78
2023-01-15T22:21:14.881Z,98911.56
2023-01-15T22:23:43.225Z,98903.69
2023-01-15T22:26:18.588Z,98912.75
2023-01-15T22:28:47.693Z,98901.88
2023-01-15T22:31:18.554Z,98900.28
2023-01-15T22:33:46.629Z,98903.94
2023-01-15T22:36:16.030Z,98895.91
2023-01-15T22:38:44.855Z,98878.97
2023-01-15T22:41:12.654Z,98853.97
2023-01-15T22:43:40.835Z,98856.31
2023-01-15T22:46:11.706Z,98866.88
2023-01-15T22:48:39.999Z,98870.31
2023-01-15T22:51:08.544Z,98873.97
2023-01-15T22:53:37.979Z,98815.66
2023-01-15T22:56:06.717Z,98841.09
2023-01-15T22:58:35.041Z,98833.75
2023-01-15T23:01:03.642Z,98818.97
2023-01-15T23:03:36.406Z,98825.78
2023-01-15T23:06:06.311Z,98803.00
2023-01-15T23:08:36.405Z,98830.03
2023-01-15T23:11:10.050Z,98788.22
2023-01-15T23:13:51.788Z,98795.00
2023-01-15T23:16:21.856Z,98811.97
2023-01-15T23:18:51.447Z,98822.28
2023-01-15T23:21:24.500Z,98819.44
2023-01-15T23:23:55.055Z,98769.94
2023-01-15T23:26:24.240Z,98802.72
2023-01-15T23:28:53.849Z,98784.97
2023-01-15T23:31:23.348Z,98780.72
2023-01-15T23:33:54.530Z,98775.69
2023-01-15T23:36:23.192Z,98779.72
2023-01-15T23:38:51.171Z,98732.28
2023-01-15T23:41:42.406Z,98769.41
2023-01-15T23:44:32.173Z,98751.44
2023-01-15T23:47:03.652Z,98758.78
2023-01-15T23:49:33.337Z,98684.97
2023-01-15T23:52:02.095Z,98717.53
2023-01-15T23:54:31.847Z,98725.69
2023-01-15T23:57:01.266Z,98746.97
2023-01-15T23:59:32.151Z,98746.19
